sensor_id;sensor_type;location;lat;lon;timestamp;pressure;altitude;pressure_sealevel;temperature;humidity
13709;BME280;54933;51.908;7.730;2023-01-30T00:01:17;101002.31;;;21.45;59.37
13709;BME280;54933;51.908;7.730;2023-01-30T00:03:43;101018.38;;;21.47;59.40
13709;BME280;54933;51.908;7.730;2023-01-30T00:06:09;101018.38;;;21.47;59.20
13709;BME280;54933;51.908;7.730;2023-01-30T00:08:35;101013.97;;;21.46;59.02
13709;BME280;54933;51.908;7.730;2023-01-30T00:11:04;101018.38;;;21.47;59.11
13709;BME280;54933;51.908;7.730;2023-01-30T00:13:29;101007.53;;;21.47;59.28
13709;BME280;54933;51.908;7.730;2023-01-30T00:15:55;101009.41;;;21.46;59.09
13709;BME280;54933;51.908;7.730;2023-01-30T00:18:20;101001.28;;;21.46;59.08
13709;BME280;54933;51.908;7.730;2023-01-30T00:20:45;100984.22;;;21.46;59.22
13709;BME280;54933;51.908;7.730;2023-01-30T00:23:10;100977.81;;;21.47;59.01
13709;BME280;54933;51.908;7.730;2023-01-30T00:25:36;100972.59;;;21.45;58.91
13709;BME280;54933;51.908;7.730;2023-01-30T00:28:01;100961.75;;;21.45;59.30
13709;BME280;54933;51.908;7.730;2023-01-30T00:30:27;100963.44;;;21.46;59.26
13709;BME280;54933;51.908;7.730;2023-01-30T00:32:54;100969.69;;;21.47;58.83
13709;BME280;54933;51.908;7.730;2023-01-30T00:35:19;100958.03;;;21.46;59.11
13709;BME280;54933;51.908;7.730;2023-01-30T00:37:45;100958.03;;;21.46;59.02
13709;BME280;54933;51.908;7.730;2023-01-30T00:40:10;100951.78;;;21.46;59.25
13709;BME280;54933;51.908;7.730;2023-01-30T00:42:36;100941.81;;;21.46;59.20
13709;BME280;54933;51.908;7.730;2023-01-30T00:45:19;100947.22;;;21.46;59.23
13709;BME280;54933;51.908;7.730;2023-01-30T00:48:03;100937.44;;;21.45;59.09
13709;BME280;54933;51.908;7.730;2023-01-30T00:50:29;100932.66;;;21.47;59.04
13709;BME280;54933;51.908;7.730;2023-01-30T00:53:15;100940.97;;;21.46;59.02
13709;BME280;54933;51.908;7.730;2023-01-30T00:55:41;100929.31;;;21.45;59.27
13709;BME280;54933;51.908;7.730;2023-01-30T00:58:08;100919.13;;;21.47;59.17
13709;BME280;54933;51.908;7.730;2023-01-30T01:00:34;100903.97;;;21.46;59.07
13709;BME280;54933;51.908;7.730;2023-01-30T01:02:59;100893.16;;;21.46;58.89
13709;BME280;54933;51.908;7.730;2023-01-30T01:05:25;100890.44;;;21.46;58.90
13709;BME280;54933;51.908;7.730;2023-01-30T01:07:51;100899.41;;;21.47;59.27
13709;BME280;54933;51.908;7.730;2023-01-30T01:10:16;100883.97;;;21.47;59.11
13709;BME280;54933;51.908;7.730;2023-01-30T01:12:42;100881.28;;;21.47;59.12
13709;BME280;54933;51.908;7.730;2023-01-30T01:15:09;100876.09;;;21.46;59.17
13709;BME280;54933;51.908;7.730;2023-01-30T01:17:35;100860.72;;;21.46;59.00
13709;BME280;54933;51.908;7.730;2023-01-30T01:20:01;100868.81;;;21.46;59.21
13709;BME280;54933;51.908;7.730;2023-01-30T01:22:26;100852.59;;;21.46;59.28
13709;BME280;54933;51.908;7.730;2023-01-30T01:24:51;100851.53;;;21.47;59.19
13709;BME280;54933;51.908;7.730;2023-01-30T01:27:17;100837.22;;;21.47;59.11
13709;BME280;54933;51.908;7.730;2023-01-30T01:29:43;100829.91;;;21.47;59.06
13709;BME280;54933;51.908;7.730;2023-01-30T01:32:08;100823.69;;;21.47;59.15
13709;BME280;54933;51.908;7.730;2023-01-30T01:34:34;100827.22;;;21.47;59.14
13709;BME280;54933;51.908;7.730;2023-01-30T01:36:59;100823.69;;;21.47;59.29
13709;BME280;54933;51.908;7.730;2023-01-30T01:39:24;100813.69;;;21.47;59.22
13709;BME280;54933;51.908;7.730;2023-01-30T01:42:09;100812.88;;;21.47;59.04
13709;BME280;54933;51.908;7.730;2023-01-30T01:47:21;100829.09;;;21.47;59.25
13709;BME280;54933;51.908;7.730;2023-01-30T01:49:47;100813.69;;;21.47;59.17
13709;BME280;54933;51.908;7.730;2023-01-30T01:52:14;100817.44;;;21.46;58.97
13709;BME280;54933;51.908;7.730;2023-01-30T01:54:47;100821.00;;;21.47;59.15
13709;BME280;54933;51.908;7.730;2023-01-30T01:57:17;100819.94;;;21.48;59.36
13709;BME280;54933;51.908;7.730;2023-01-30T01:59:48;100804.78;;;21.47;59.31
13709;BME280;54933;51.908;7.730;2023-01-30T02:02:15;100797.47;;;21.47;59.20
13709;BME280;54933;51.908;7.730;2023-01-30T02:04:44;100785.84;;;21.47;59.16
13709;BME280;54933;51.908;7.730;2023-01-30T02:07:53;100801.22;;;21.46;59.25
13709;BME280;54933;51.908;7.730;2023-01-30T02:10:21;100796.66;;;21.47;59.30
13709;BME280;54933;51.908;7.730;2023-01-30T02:12:49;100797.47;;;21.47;59.22
13709;BME280;54933;51.908;7.730;2023-01-30T02:15:16;100785.00;;;21.46;59.20
13709;BME280;54933;51.908;7.730;2023-01-30T02:17:42;100789.34;;;21.47;59.12
13709;BME280;54933;51.908;7.730;2023-01-30T02:23:33;100775.03;;;21.47;59.22
13709;BME280;54933;51.908;7.730;2023-01-30T02:34:58;100749.88;;;21.46;59.27
13709;BME280;54933;51.908;7.730;2023-01-30T02:45:52;100718.44;;;21.45;59.19
13709;BME280;54933;51.908;7.730;2023-01-30T02:48:34;100716.81;;;21.44;59.42
13709;BME280;54933;51.908;7.730;2023-01-30T02:51:10;100703.06;;;21.46;59.33
13709;BME280;54933;51.908;7.730;2023-01-30T02:53:37;100702.22;;;21.45;59.42
13709;BME280;54933;51.908;7.730;2023-01-30T02:56:03;100704.94;;;21.45;59.04
13709;BME280;54933;51.908;7.730;2023-01-30T02:58:35;100694.13;;;21.45;59.27
13709;BME280;54933;51.908;7.730;2023-01-30T03:01:34;100691.41;;;21.45;59.25
13709;BME280;54933;51.908;7.730;2023-01-30T03:04:30;100697.88;;;21.44;59.39
13709;BME280;54933;51.908;7.730;2023-01-30T03:10:26;100696.81;;;21.45;59.35
13709;BME280;54933;51.908;7.730;2023-01-30T03:15:56;100681.44;;;21.46;59.39
13709;BME280;54933;51.908;7.730;2023-01-30T03:18:23;100693.09;;;21.46;59.38
13709;BME280;54933;51.908;7.730;2023-01-30T03:20:49;100684.38;;;21.44;59.40
13709;BME280;54933;51.908;7.730;2023-01-30T03:23:15;100679.56;;;21.46;59.19
13709;BME280;54933;51.908;7.730;2023-01-30T03:25:42;100672.50;;;21.45;59.19
13709;BME280;54933;51.908;7.730;2023-01-30T03:28:09;100671.47;;;21.46;59.18
13709;BME280;54933;51.908;7.730;2023-01-30T03:30:36;100662.28;;;21.47;59.30
13709;BME280;54933;51.908;7.730;2023-01-30T03:33:01;100662.28;;;21.47;59.48
13709;BME280;54933;51.908;7.730;2023-01-30T03:35:26;100652.53;;;21.46;59.49
13709;BME280;54933;51.908;7.730;2023-01-30T03:37:53;100647.97;;;21.47;59.32
13709;BME280;54933;51.908;7.730;2023-01-30T03:40:18;100656.09;;;21.47;59.19
13709;BME280;54933;51.908;7.730;2023-01-30T03:42:44;100652.31;;;21.48;59.18
13709;BME280;54933;51.908;7.730;2023-01-30T03:45:10;100642.56;;;21.47;59.04
13709;BME280;54933;51.908;7.730;2023-01-30T03:47:35;100638.19;;;21.46;59.55
13709;BME280;54933;51.908;7.730;2023-01-30T03:50:01;100635.25;;;21.47;59.26
13709;BME280;54933;51.908;7.730;2023-01-30T03:52:26;100643.38;;;21.47;59.39
13709;BME280;54933;51.908;7.730;2023-01-30T03:54:52;100631.53;;;21.48;59.47
13709;BME280;54933;51.908;7.730;2023-01-30T03:57:17;100625.28;;;21.48;59.42
13709;BME280;54933;51.908;7.730;2023-01-30T03:59:42;100631.53;;;21.48;59.29
13709;BME280;54933;51.908;7.730;2023-01-30T04:02:08;100621.50;;;21.49;59.48
13709;BME280;54933;51.908;7.730;2023-01-30T04:04:34;100618.00;;;21.48;59.44
13709;BME280;54933;51.908;7.730;2023-01-30T04:06:59;100608.84;;;21.49;59.38
13709;BME280;54933;51.908;7.730;2023-01-30T04:09:24;100609.91;;;21.48;59.18
13709;BME280;54933;51.908;7.730;2023-01-30T04:11:49;100610.94;;;21.47;59.18
13709;BME280;54933;51.908;7.730;2023-01-30T04:14:15;100609.06;;;21.48;59.09
13709;BME280;54933;51.908;7.730;2023-01-30T04:16:40;100612.59;;;21.48;59.24
13709;BME280;54933;51.908;7.730;2023-01-30T04:19:05;100618.00;;;21.48;59.27
13709;BME280;54933;51.908;7.730;2023-01-30T04:21:30;100619.88;;;21.48;59.11
13709;BME280;54933;51.908;7.730;2023-01-30T04:23:56;100610.69;;;21.49;59.38
13709;BME280;54933;51.908;7.730;2023-01-30T04:26:21;100619.03;;;21.47;59.14
13709;BME280;54933;51.908;7.730;2023-01-30T04:28:46;100606.34;;;21.48;59.22
13709;BME280;54933;51.908;7.730;2023-01-30T04:31:11;100616.09;;;21.49;59.25
13709;BME280;54933;51.908;7.730;2023-01-30T04:33:37;100610.69;;;21.49;59.07
13709;BME280;54933;51.908;7.730;2023-01-30T04:36:05;100608.00;;;21.49;59.25
13709;BME280;54933;51.908;7.730;2023-01-30T04:38:32;100606.97;;;21.50;59.21
13709;BME280;54933;51.908;7.730;2023-01-30T04:40:58;100612.59;;;21.48;59.35
13709;BME280;54933;51.908;7.730;2023-01-30T04:43:25;100600.72;;;21.49;59.13
13709;BME280;54933;51.908;7.730;2023-01-30T04:45:50;100603.66;;;21.48;59.42
13709;BME280;54933;51.908;7.730;2023-01-30T04:48:16;100597.41;;;21.47;59.28
13709;BME280;54933;51.908;7.730;2023-01-30T04:50:43;100599.09;;;21.48;59.27
13709;BME280;54933;51.908;7.730;2023-01-30T04:53:09;100602.81;;;21.47;58.81
13709;BME280;54933;51.908;7.730;2023-01-30T04:55:34;100590.97;;;21.48;59.24
13709;BME280;54933;51.908;7.730;2023-01-30T04:58:00;100592.84;;;21.48;59.17
13709;BME280;54933;51.908;7.730;2023-01-30T05:00:25;100591.41;;;21.45;59.29
13709;BME280;54933;51.908;7.730;2023-01-30T05:02:51;100596.19;;;21.25;59.16
13709;BME280;54933;51.908;7.730;2023-01-30T05:05:17;100595.25;;;21.13;59.68
13709;BME280;54933;51.908;7.730;2023-01-30T05:07:42;100600.72;;;21.07;59.63
13709;BME280;54933;51.908;7.730;2023-01-30T05:10:08;100587.66;;;21.04;59.58
13709;BME280;54933;51.908;7.730;2023-01-30T05:12:34;100576.47;;;21.00;59.99
13709;BME280;54933;51.908;7.730;2023-01-30T05:14:59;100566.72;;;20.99;60.24
13709;BME280;54933;51.908;7.730;2023-01-30T05:17:25;100566.28;;;21.02;60.11
13709;BME280;54933;51.908;7.730;2023-01-30T05:19:50;100569.22;;;20.94;60.45
13709;BME280;54933;51.908;7.730;2023-01-30T05:22:16;100567.66;;;20.80;60.23
13709;BME280;54933;51.908;7.730;2023-01-30T05:24:41;100567.34;;;20.70;60.21
13709;BME280;54933;51.908;7.730;2023-01-30T05:27:06;100584.19;;;20.66;60.29
13709;BME280;54933;51.908;7.730;2023-01-30T05:29:31;100585.25;;;20.65;60.43
13709;BME280;54933;51.908;7.730;2023-01-30T05:31:57;100600.16;;;20.67;60.64
13709;BME280;54933;51.908;7.730;2023-01-30T05:34:22;100601.41;;;20.71;60.94
13709;BME280;54933;51.908;7.730;2023-01-30T05:36:47;100596.38;;;20.75;61.06
13709;BME280;54933;51.908;7.730;2023-01-30T05:39:13;100609.06;;;20.74;61.13
13709;BME280;54933;51.908;7.730;2023-01-30T05:41:38;100614.91;;;20.71;61.36
13709;BME280;54933;51.908;7.730;2023-01-30T05:44:03;100608.03;;;20.75;61.43
13709;BME280;54933;51.908;7.730;2023-01-30T05:46:29;100605.09;;;20.77;61.50
13709;BME280;54933;51.908;7.730;2023-01-30T05:48:54;100609.63;;;20.83;61.34
13709;BME280;54933;51.908;7.730;2023-01-30T05:51:21;100593.81;;;20.86;61.57
13709;BME280;54933;51.908;7.730;2023-01-30T05:53:47;100591.56;;;20.83;61.30
13709;BME280;54933;51.908;7.730;2023-01-30T05:56:12;100586.78;;;20.79;61.14
13709;BME280;54933;51.908;7.730;2023-01-30T05:58:37;100592.94;;;20.61;61.02
13709;BME280;54933;51.908;7.730;2023-01-30T06:01:05;100591.97;;;20.56;61.01
13709;BME280;54933;51.908;7.730;2023-01-30T06:03:31;100597.78;;;20.53;61.22
13709;BME280;54933;51.908;7.730;2023-01-30T06:05:57;100600.88;;;20.56;61.16
13709;BME280;54933;51.908;7.730;2023-01-30T06:08:23;100591.31;;;20.60;61.53
13709;BME280;54933;51.908;7.730;2023-01-30T06:10:48;100598.53;;;20.66;61.96
13709;BME280;54933;51.908;7.730;2023-01-30T06:13:14;100596.59;;;20.73;61.71
13709;BME280;54933;51.908;7.730;2023-01-30T06:15:39;100593.06;;;20.73;61.86
13709;BME280;54933;51.908;7.730;2023-01-30T06:18:04;100606.78;;;20.71;61.90
13709;BME280;54933;51.908;7.730;2023-01-30T06:20:30;100595.09;;;20.77;61.90
13709;BME280;54933;51.908;7.730;2023-01-30T06:22:55;100594.06;;;20.78;61.83
13709;BME280;54933;51.908;7.730;2023-01-30T06:25:21;100603.53;;;20.63;61.81
13709;BME280;54933;51.908;7.730;2023-01-30T06:27:46;100607.06;;;20.63;61.60
13709;BME280;54933;51.908;7.730;2023-01-30T06:30:11;100581.38;;;20.10;60.42
13709;BME280;54933;51.908;7.730;2023-01-30T06:32:37;100590.56;;;20.02;57.87
13709;BME280;54933;51.908;7.730;2023-01-30T06:35:03;100613.16;;;20.08;57.54
13709;BME280;54933;51.908;7.730;2023-01-30T06:37:28;100630.97;;;20.22;57.93
13709;BME280;54933;51.908;7.730;2023-01-30T06:39:54;100657.25;;;20.33;58.35
13709;BME280;54933;51.908;7.730;2023-01-30T06:42:19;100644.53;;;20.47;59.13
13709;BME280;54933;51.908;7.730;2023-01-30T06:44:44;100633.88;;;20.58;58.41
13709;BME280;54933;51.908;7.730;2023-01-30T06:47:09;100636.31;;;20.66;58.37
13709;BME280;54933;51.908;7.730;2023-01-30T06:49:35;100643.31;;;20.74;58.32
13709;BME280;54933;51.908;7.730;2023-01-30T06:52:00;100654.78;;;20.69;58.28
13709;BME280;54933;51.908;7.730;2023-01-30T06:54:25;100652.06;;;20.69;58.62
13709;BME280;54933;51.908;7.730;2023-01-30T06:56:50;100656.81;;;20.74;59.04
13709;BME280;54933;51.908;7.730;2023-01-30T06:59:16;100650.38;;;20.75;59.39
13709;BME280;54933;51.908;7.730;2023-01-30T07:01:41;100659.91;;;20.77;59.75
13709;BME280;54933;51.908;7.730;2023-01-30T07:04:06;100648.75;;;20.67;59.88
13709;BME280;54933;51.908;7.730;2023-01-30T07:06:32;100643.00;;;20.64;60.41
13709;BME280;54933;51.908;7.730;2023-01-30T07:08:57;100643.81;;;20.64;60.93
13709;BME280;54933;51.908;7.730;2023-01-30T07:11:23;100644.19;;;20.68;61.18
13709;BME280;54933;51.908;7.730;2023-01-30T07:13:49;100651.63;;;20.72;61.10
13709;BME280;54933;51.908;7.730;2023-01-30T07:16:14;100650.56;;;20.80;61.61
13709;BME280;54933;51.908;7.730;2023-01-30T07:18:39;100640.97;;;20.84;61.67
13709;BME280;54933;51.908;7.730;2023-01-30T07:21:05;100651.72;;;20.90;61.81
13709;BME280;54933;51.908;7.730;2023-01-30T07:23:30;100657.94;;;20.97;61.76
13709;BME280;54933;51.908;7.730;2023-01-30T07:25:55;100649.41;;;21.00;61.94
13709;BME280;54933;51.908;7.730;2023-01-30T07:28:20;100649.19;;;21.02;61.91
13709;BME280;54933;51.908;7.730;2023-01-30T07:33:11;100650.78;;;20.78;61.81
13709;BME280;54933;51.908;7.730;2023-01-30T07:35:37;100669.94;;;20.70;61.96
13709;BME280;54933;51.908;7.730;2023-01-30T07:38:03;100677.69;;;20.60;61.92
13709;BME280;54933;51.908;7.730;2023-01-30T07:40:29;100686.81;;;20.59;62.10
13709;BME280;54933;51.908;7.730;2023-01-30T07:42:56;100690.75;;;20.63;62.41
13709;BME280;54933;51.908;7.730;2023-01-30T07:45:22;100693.00;;;20.66;62.63
13709;BME280;54933;51.908;7.730;2023-01-30T07:47:47;100688.63;;;20.72;62.97
13709;BME280;54933;51.908;7.730;2023-01-30T07:50:12;100686.34;;;20.75;63.08
13709;BME280;54933;51.908;7.730;2023-01-30T07:52:37;100689.41;;;20.79;63.25
13709;BME280;54933;51.908;7.730;2023-01-30T07:55:03;100687.72;;;20.84;63.28
13709;BME280;54933;51.908;7.730;2023-01-30T07:57:28;100690.59;;;20.89;63.25
13709;BME280;54933;51.908;7.730;2023-01-30T07:59:54;100690.16;;;20.92;63.19
13709;BME280;54933;51.908;7.730;2023-01-30T08:02:19;100682.25;;;20.97;62.81
13709;BME280;54933;51.908;7.730;2023-01-30T08:04:44;100697.59;;;21.03;62.96
13709;BME280;54933;51.908;7.730;2023-01-30T08:07:09;100703.38;;;21.07;63.11
13709;BME280;54933;51.908;7.730;2023-01-30T08:09:35;100696.13;;;21.07;63.10
13709;BME280;54933;51.908;7.730;2023-01-30T08:12:00;100701.28;;;21.09;62.79
13709;BME280;54933;51.908;7.730;2023-01-30T08:14:25;100694.38;;;21.13;62.72
13709;BME280;54933;51.908;7.730;2023-01-30T08:16:52;100695.00;;;21.15;62.89
13709;BME280;54933;51.908;7.730;2023-01-30T08:19:18;100702.66;;;21.18;62.07
13709;BME280;54933;51.908;7.730;2023-01-30T08:21:43;100680.25;;;21.17;62.97
13709;BME280;54933;51.908;7.730;2023-01-30T08:24:08;100697.03;;;21.19;62.63
13709;BME280;54933;51.908;7.730;2023-01-30T08:26:33;100701.41;;;21.20;62.71
13709;BME280;54933;51.908;7.730;2023-01-30T08:28:59;100701.41;;;21.20;62.81
13709;BME280;54933;51.908;7.730;2023-01-30T08:31:24;100705.75;;;21.21;62.73
13709;BME280;54933;51.908;7.730;2023-01-30T08:33:49;100716.56;;;21.21;62.53
13709;BME280;54933;51.908;7.730;2023-01-30T08:36:14;100723.66;;;21.22;62.80
13709;BME280;54933;51.908;7.730;2023-01-30T08:38:40;100721.53;;;21.24;62.66
13709;BME280;54933;51.908;7.730;2023-01-30T08:41:05;100716.97;;;21.25;62.79
13709;BME280;54933;51.908;7.730;2023-01-30T08:43:33;100715.91;;;21.26;62.41
13709;BME280;54933;51.908;7.730;2023-01-30T08:45:58;100707.81;;;21.26;62.48
13709;BME280;54933;51.908;7.730;2023-01-30T08:48:23;100704.06;;;21.27;62.64
13709;BME280;54933;51.908;7.730;2023-01-30T08:50:52;100712.19;;;21.27;62.82
13709;BME280;54933;51.908;7.730;2023-01-30T08:53:18;100708.41;;;21.28;62.64
13709;BME280;54933;51.908;7.730;2023-01-30T08:55:44;100711.97;;;21.28;62.40
13709;BME280;54933;51.908;7.730;2023-01-30T08:58:09;100709.03;;;21.30;62.42
13709;BME280;54933;51.908;7.730;2023-01-30T09:00:35;100709.88;;;21.30;62.46
13709;BME280;54933;51.908;7.730;2023-01-30T09:03:01;100704.47;;;21.30;62.57
13709;BME280;54933;51.908;7.730;2023-01-30T09:05:27;100707.16;;;21.30;62.43
13709;BME280;54933;51.908;7.730;2023-01-30T09:07:54;100707.97;;;21.31;62.49
13709;BME280;54933;51.908;7.730;2023-01-30T09:10:19;100708.81;;;21.31;62.25
13709;BME280;54933;51.908;7.730;2023-01-30T09:12:46;100702.34;;;21.32;62.51
13709;BME280;54933;51.908;7.730;2023-01-30T09:15:11;100712.13;;;21.33;62.41
13709;BME280;54933;51.908;7.730;2023-01-30T09:17:37;100699.44;;;21.34;62.25
13709;BME280;54933;51.908;7.730;2023-01-30T09:20:08;100704.03;;;21.33;62.36
13709;BME280;54933;51.908;7.730;2023-01-30T09:22:34;100696.53;;;21.35;62.40
13709;BME280;54933;51.908;7.730;2023-01-30T09:24:59;100705.66;;;21.34;62.44
13709;BME280;54933;51.908;7.730;2023-01-30T09:27:25;100705.44;;;21.36;62.44
13709;BME280;54933;51.908;7.730;2023-01-30T09:29:50;100712.75;;;21.35;62.50
13709;BME280;54933;51.908;7.730;2023-01-30T09:32:15;100722.50;;;21.36;62.23
13709;BME280;54933;51.908;7.730;2023-01-30T09:34:41;100711.69;;;21.36;62.30
13709;BME280;54933;51.908;7.730;2023-01-30T09:37:06;100717.94;;;21.37;62.21
13709;BME280;54933;51.908;7.730;2023-01-30T09:39:32;100721.44;;;21.37;62.09
13709;BME280;54933;51.908;7.730;2023-01-30T09:55:51;100721.03;;;21.40;61.85
13709;BME280;54933;51.908;7.730;2023-01-30T09:58:21;100716.41;;;21.41;61.74
13709;BME280;54933;51.908;7.730;2023-01-30T10:00:51;100732.63;;;21.41;61.87
13709;BME280;54933;51.908;7.730;2023-01-30T10:03:30;100736.19;;;21.41;61.60
13709;BME280;54933;51.908;7.730;2023-01-30T10:06:00;100735.13;;;21.42;61.83
13709;BME280;54933;51.908;7.730;2023-01-30T10:08:47;100735.13;;;21.42;61.92
13709;BME280;54933;51.908;7.730;2023-01-30T10:11:51;100737.81;;;21.42;61.69
13709;BME280;54933;51.908;7.730;2023-01-30T10:14:24;100734.09;;;21.43;61.76
13709;BME280;54933;51.908;7.730;2023-01-30T10:22:44;100736.91;;;21.30;61.44
13709;BME280;54933;51.908;7.730;2023-01-30T10:25:32;100747.72;;;21.30;61.68
13709;BME280;54933;51.908;7.730;2023-01-30T10:28:10;100743.09;;;21.31;61.58
13709;BME280;54933;51.908;7.730;2023-01-30T10:30:39;100742.31;;;21.30;61.80
13709;BME280;54933;51.908;7.730;2023-01-30T10:33:09;100737.47;;;21.32;61.78
13709;BME280;54933;51.908;7.730;2023-01-30T10:35:40;100727.28;;;21.34;61.43
13709;BME280;54933;51.908;7.730;2023-01-30T10:38:30;100736.63;;;21.38;61.78
13709;BME280;54933;51.908;7.730;2023-01-30T10:44:09;100737.03;;;21.42;61.51
13709;BME280;54933;51.908;7.730;2023-01-30T10:49:39;100742.19;;;21.43;61.82
13709;BME280;54933;51.908;7.730;2023-01-30T10:55:18;100734.66;;;21.45;61.68
13709;BME280;54933;51.908;7.730;2023-01-30T11:01:12;100747.16;;;21.46;61.35
13709;BME280;54933;51.908;7.730;2023-01-30T11:03:45;100749.66;;;21.48;61.31
13709;BME280;54933;51.908;7.730;2023-01-30T11:06:16;100745.06;;;21.48;61.53
13709;BME280;54933;51.908;7.730;2023-01-30T11:08:43;100758.59;;;21.48;61.50
13709;BME280;54933;51.908;7.730;2023-01-30T11:11:34;100751.28;;;21.49;61.20
13709;BME280;54933;51.908;7.730;2023-01-30T11:14:08;100759.63;;;21.47;61.25
13709;BME280;54933;51.908;7.730;2023-01-30T11:19:13;100770.25;;;21.11;61.15
13709;BME280;54933;51.908;7.730;2023-01-30T11:21:40;100763.25;;;21.04;62.00
13709;BME280;54933;51.908;7.730;2023-01-30T11:24:16;100762.84;;;21.00;61.80
13709;BME280;54933;51.908;7.730;2023-01-30T11:26:42;100757.69;;;20.99;61.95
13709;BME280;54933;51.908;7.730;2023-01-30T11:29:36;100747.88;;;21.04;62.11
13709;BME280;54933;51.908;7.730;2023-01-30T11:32:05;100748.91;;;21.03;62.24
13709;BME280;54933;51.908;7.730;2023-01-30T11:34:34;100757.47;;;21.00;62.38
13709;BME280;54933;51.908;7.730;2023-01-30T11:37:26;100749.72;;;21.10;62.65
13709;BME280;54933;51.908;7.730;2023-01-30T11:39:54;100743.47;;;21.10;62.65
13709;BME280;54933;51.908;7.730;2023-01-30T11:42:24;100739.75;;;21.11;62.56
13709;BME280;54933;51.908;7.730;2023-01-30T11:44:59;100743.41;;;21.16;62.81
13709;BME280;54933;51.908;7.730;2023-01-30T11:47:27;100747.81;;;21.17;62.88
13709;BME280;54933;51.908;7.730;2023-01-30T11:49:55;100742.75;;;21.27;62.95
13709;BME280;54933;51.908;7.730;2023-01-30T11:52:25;100752.06;;;21.31;62.82
13709;BME280;54933;51.908;7.730;2023-01-30T11:54:53;100742.47;;;21.35;62.84
13709;BME280;54933;51.908;7.730;2023-01-30T11:57:25;100745.34;;;21.40;62.85
13709;BME280;54933;51.908;7.730;2023-01-30T11:59:58;100747.00;;;21.41;62.72
13709;BME280;54933;51.908;7.730;2023-01-30T12:04:59;100747.59;;;21.43;62.65
13709;BME280;54933;51.908;7.730;2023-01-30T12:07:27;100743.84;;;21.44;62.30
13709;BME280;54933;51.908;7.730;2023-01-30T12:09:54;100741.13;;;21.44;62.46
13709;BME280;54933;51.908;7.730;2023-01-30T12:12:36;100734.66;;;21.45;62.46
13709;BME280;54933;51.908;7.730;2023-01-30T12:17:56;100740.09;;;21.45;62.51
13709;BME280;54933;51.908;7.730;2023-01-30T12:20:48;100733.66;;;21.46;62.60
13709;BME280;54933;51.908;7.730;2023-01-30T12:28:54;100750.47;;;21.48;62.25
13709;BME280;54933;51.908;7.730;2023-01-30T12:34:00;100754.81;;;21.49;62.29
13709;BME280;54933;51.908;7.730;2023-01-30T12:36:46;100752.97;;;21.50;62.22
13709;BME280;54933;51.908;7.730;2023-01-30T12:39:35;100754.81;;;21.49;62.38
13709;BME280;54933;51.908;7.730;2023-01-30T12:45:23;100765.41;;;21.51;62.19
13709;BME280;54933;51.908;7.730;2023-01-30T12:50:45;100755.44;;;21.51;61.96
13709;BME280;54933;51.908;7.730;2023-01-30T12:53:41;100760.00;;;21.51;62.08
13709;BME280;54933;51.908;7.730;2023-01-30T12:56:28;100750.03;;;21.51;62.14
13709;BME280;54933;51.908;7.730;2023-01-30T13:04:38;100762.28;;;21.54;62.10
13709;BME280;54933;51.908;7.730;2023-01-30T13:07:34;100774.97;;;21.53;61.97
13709;BME280;54933;51.908;7.730;2023-01-30T13:12:57;100769.13;;;21.57;61.85
13709;BME280;54933;51.908;7.730;2023-01-30T13:15:33;100763.72;;;21.57;61.74
13709;BME280;54933;51.908;7.730;2023-01-30T13:18:13;100773.69;;;21.56;61.89
13709;BME280;54933;51.908;7.730;2023-01-30T13:24:05;100773.69;;;21.56;61.58
13709;BME280;54933;51.908;7.730;2023-01-30T13:26:33;100768.06;;;21.58;61.72
13709;BME280;54933;51.908;7.730;2023-01-30T13:29:14;100776.19;;;21.58;61.75
13709;BME280;54933;51.908;7.730;2023-01-30T13:31:49;100787.00;;;21.58;61.71
13709;BME280;54933;51.908;7.730;2023-01-30T13:34:25;100788.63;;;21.58;61.70
13709;BME280;54933;51.908;7.730;2023-01-30T13:37:06;100791.34;;;21.58;61.69
13709;BME280;54933;51.908;7.730;2023-01-30T13:39:43;100784.91;;;21.60;61.54
13709;BME280;54933;51.908;7.730;2023-01-30T13:42:28;100809.25;;;21.60;61.56
13709;BME280;54933;51.908;7.730;2023-01-30T13:44:55;100825.47;;;21.60;61.66
13709;BME280;54933;51.908;7.730;2023-01-30T13:47:53;100843.34;;;21.61;61.56
13709;BME280;54933;51.908;7.730;2023-01-30T13:50:44;100852.28;;;21.61;61.64
13709;BME280;54933;51.908;7.730;2023-01-30T13:53:25;100859.56;;;21.61;61.68
13709;BME280;54933;51.908;7.730;2023-01-30T13:56:16;100845.03;;;21.62;61.67
13709;BME280;54933;51.908;7.730;2023-01-30T13:58:54;100853.13;;;21.62;61.39
13709;BME280;54933;51.908;7.730;2023-01-30T14:01:23;100867.69;;;21.61;61.55
13709;BME280;54933;51.908;7.730;2023-01-30T14:03:51;100873.94;;;21.61;61.48
13709;BME280;54933;51.908;7.730;2023-01-30T14:06:33;100893.69;;;21.62;61.30
13709;BME280;54933;51.908;7.730;2023-01-30T14:09:04;100909.91;;;21.62;61.39
13709;BME280;54933;51.908;7.730;2023-01-30T14:11:47;100898.88;;;21.63;61.43
13709;BME280;54933;51.908;7.730;2023-01-30T14:14:31;100885.38;;;21.63;61.43
13709;BME280;54933;51.908;7.730;2023-01-30T14:17:08;100902.41;;;21.64;61.25
13709;BME280;54933;51.908;7.730;2023-01-30T14:19:38;100896.19;;;21.63;61.23
13709;BME280;54933;51.908;7.730;2023-01-30T14:22:18;100906.78;;;21.65;61.31
13709;BME280;54933;51.908;7.730;2023-01-30T14:24:44;100906.78;;;21.65;60.79
13709;BME280;54933;51.908;7.730;2023-01-30T14:27:24;100905.09;;;21.64;61.16
13709;BME280;54933;51.908;7.730;2023-01-30T14:29:53;100906.78;;;21.65;61.02
13709;BME280;54933;51.908;7.730;2023-01-30T14:37:27;100930.06;;;21.66;61.00
13709;BME280;54933;51.908;7.730;2023-01-30T14:39:54;100930.06;;;21.66;61.19
13709;BME280;54933;51.908;7.730;2023-01-30T14:42:21;100942.56;;;21.67;61.03
13709;BME280;54933;51.908;7.730;2023-01-30T14:45:04;100941.72;;;21.66;60.75